CheckWX is a tool to help pilots better visualize weather data.  It is not intended as a substitute for an official pre-flight weather briefing.

11:40:45 UTC

HESH METAR
Sharm El Sheikh International Airport
Sharm el-Sheikh, Egypt
Current

41 mins ago

HESH 131100Z 03005KT 6000 NSC 31/25 Q1010 NOSIG
Observed
Nov-13 @ 11:00 UTC
Wind
  • 030° at 5 KTS
Visibility
6,000 meters
Flight Rules
MVFR
Cloud Levels
  • Clear skies
Temperature
31°C / 88°F
Dewpoint
25°C / 77°F
Heat Index
38°C / 100°F
Humidity
70%
Altimeter
29.82" Hg
Pressure
1009.92 hPa
Previous

3 hours ago

HESH 130900Z 02010KT 6000 NSC 31/24 Q1011 NOSIG
Observed
Nov-13 @ 09:00 UTC
Wind
  • 020° at 10 KTS
Visibility
6,000 meters
Flight Rules
MVFR
Cloud Levels
  • Clear skies
Temperature
31°C / 88°F
Dewpoint
24°C / 75°F
Heat Index
37°C / 98°F
Humidity
66%
Altimeter
29.85" Hg
Pressure
1010.92 hPa
Previous

4 hours ago

HESH 130800Z 02010KT CAVOK 30/22 Q1011 NOSIG
Observed
Nov-13 @ 08:00 UTC
Wind
  • 020° at 10 KTS
Visibility
10,000+ meters
Flight Rules
VFR
Cloud Levels
  • Clear skies
Temperature
30°C / 86°F
Dewpoint
22°C / 72°F
Heat Index
33°C / 92°F
Humidity
62%
Altimeter
29.85" Hg
Pressure
1010.92 hPa